createdAt,value
2022-10-08T00:00:18.606Z,0.00
2022-10-08T00:01:18.591Z,0.00
2022-10-08T00:02:18.604Z,0.00
2022-10-08T00:03:18.577Z,0.00
2022-10-08T00:04:18.639Z,0.00
2022-10-08T00:05:18.573Z,0.00
2022-10-08T00:06:18.548Z,0.00
2022-10-08T00:07:18.543Z,0.00
2022-10-08T00:08:18.537Z,0.00
2022-10-08T00:09:18.526Z,0.00
2022-10-08T00:10:18.524Z,0.00
2022-10-08T00:11:18.540Z,0.00
2022-10-08T00:12:18.507Z,0.00
2022-10-08T00:13:18.496Z,0.00
2022-10-08T00:14:18.522Z,0.00
2022-10-08T00:15:18.485Z,0.00
2022-10-08T00:16:18.514Z,0.00
2022-10-08T00:17:18.476Z,0.00
2022-10-08T00:18:18.464Z,0.00
2022-10-08T00:19:18.495Z,0.00
2022-10-08T00:20:18.447Z,0.00
2022-10-08T00:21:18.470Z,0.00
2022-10-08T00:22:18.457Z,0.00
2022-10-08T00:23:18.428Z,0.00
2022-10-08T00:24:18.419Z,0.00
2022-10-08T00:25:18.424Z,0.00
2022-10-08T00:26:18.416Z,0.00
2022-10-08T00:27:18.395Z,0.00
2022-10-08T00:28:18.460Z,0.00
2022-10-08T00:29:18.390Z,0.00
2022-10-08T00:30:18.382Z,0.00
2022-10-08T00:31:18.421Z,0.00
2022-10-08T00:32:18.358Z,0.00
2022-10-08T00:33:18.346Z,0.00
2022-10-08T00:34:18.378Z,0.00
2022-10-08T00:35:18.339Z,0.00
2022-10-08T00:36:18.332Z,0.00
2022-10-08T00:37:18.317Z,0.00
2022-10-08T00:38:18.317Z,0.00
2022-10-08T00:39:18.308Z,0.00
2022-10-08T00:40:18.331Z,0.00
2022-10-08T00:41:18.290Z,0.00
2022-10-08T00:42:18.321Z,0.00
2022-10-08T00:43:19.970Z,0.00
2022-10-08T00:44:18.270Z,0.00
2022-10-08T00:45:18.255Z,0.00
2022-10-08T00:46:18.257Z,0.00
2022-10-08T00:47:18.268Z,0.00
2022-10-08T00:48:18.241Z,0.00
2022-10-08T00:49:18.231Z,0.00
2022-10-08T00:50:18.232Z,0.00
2022-10-08T00:51:18.217Z,0.00
2022-10-08T00:52:18.212Z,0.00
2022-10-08T00:53:18.214Z,0.00
2022-10-08T00:54:18.193Z,0.00
2022-10-08T00:55:18.193Z,0.00
2022-10-08T00:56:18.198Z,0.00
2022-10-08T00:57:18.176Z,0.00
2022-10-08T00:58:18.174Z,0.00
2022-10-08T00:59:18.182Z,0.00
2022-10-08T01:00:18.207Z,0.00
2022-10-08T01:01:18.210Z,0.00
2022-10-08T01:02:18.175Z,0.00
2022-10-08T01:03:18.120Z,0.00
2022-10-08T01:04:18.122Z,0.00
2022-10-08T01:05:18.117Z,0.00
2022-10-08T01:06:18.125Z,0.00
2022-10-08T01:07:18.096Z,0.00
2022-10-08T01:08:18.091Z,0.00
2022-10-08T01:09:19.039Z,0.00
2022-10-08T01:10:18.080Z,0.00
2022-10-08T01:11:18.070Z,0.00
2022-10-08T01:12:18.081Z,0.00
2022-10-08T01:13:18.054Z,0.00
2022-10-08T01:14:18.065Z,0.00
2022-10-08T01:15:18.037Z,0.00
2022-10-08T01:16:18.079Z,0.00
2022-10-08T01:17:18.019Z,0.00
2022-10-08T01:18:18.044Z,0.00
2022-10-08T01:19:18.030Z,0.00
2022-10-08T01:20:17.995Z,0.00
2022-10-08T01:21:17.993Z,0.00
2022-10-08T01:22:17.995Z,0.00
2022-10-08T01:23:17.971Z,0.00
2022-10-08T01:24:17.995Z,0.00
2022-10-08T01:25:17.983Z,0.00
2022-10-08T01:26:17.943Z,0.00
2022-10-08T01:27:17.950Z,0.00
2022-10-08T01:28:17.954Z,0.00
2022-10-08T01:29:17.927Z,0.00
2022-10-08T01:30:17.937Z,0.00
2022-10-08T01:31:18.019Z,0.00
2022-10-08T01:32:17.904Z,0.00
2022-10-08T01:33:17.895Z,0.00
2022-10-08T01:34:17.892Z,0.00
2022-10-08T01:35:17.878Z,0.00
2022-10-08T01:36:17.918Z,0.00
2022-10-08T01:37:17.867Z,0.00
2022-10-08T01:38:17.872Z,0.00
2022-10-08T01:39:17.848Z,0.00
2022-10-08T01:40:17.859Z,0.00
2022-10-08T01:41:17.852Z,0.00
2022-10-08T01:42:17.845Z,0.00
2022-10-08T01:43:17.824Z,0.00
2022-10-08T01:44:17.809Z,0.00
2022-10-08T01:45:17.804Z,0.00
2022-10-08T01:46:17.867Z,0.00
2022-10-08T01:47:17.802Z,0.00
2022-10-08T01:48:17.782Z,0.00
2022-10-08T01:49:17.793Z,0.00
2022-10-08T01:50:17.771Z,0.00
2022-10-08T01:51:17.787Z,0.00
2022-10-08T01:52:17.768Z,0.00
2022-10-08T01:53:17.733Z,0.00
2022-10-08T01:54:17.745Z,0.00
2022-10-08T01:55:17.725Z,0.00
2022-10-08T01:56:17.721Z,0.00
2022-10-08T01:57:17.727Z,0.00
2022-10-08T01:58:17.721Z,0.00
2022-10-08T01:59:17.716Z,0.00
2022-10-08T02:00:17.687Z,0.00
2022-10-08T02:01:17.747Z,0.00
2022-10-08T02:02:17.721Z,0.00
2022-10-08T02:03:17.668Z,0.00
2022-10-08T02:04:17.694Z,0.00
2022-10-08T02:05:17.655Z,0.00
2022-10-08T02:06:17.651Z,0.00
2022-10-08T02:07:17.639Z,0.00
2022-10-08T02:08:17.641Z,0.00
2022-10-08T02:09:17.626Z,0.00
2022-10-08T02:10:17.646Z,0.00
2022-10-08T02:11:17.615Z,0.00
2022-10-08T02:12:17.604Z,0.00
2022-10-08T02:13:17.586Z,0.00
2022-10-08T02:14:17.583Z,0.00
2022-10-08T02:15:17.599Z,0.00
2022-10-08T02:16:17.631Z,0.00
2022-10-08T02:17:17.562Z,0.00
2022-10-08T02:18:17.561Z,0.00
2022-10-08T02:19:17.543Z,0.00
2022-10-08T02:20:17.564Z,0.00
2022-10-08T02:21:17.518Z,0.00
2022-10-08T02:22:17.536Z,0.00
2022-10-08T02:23:17.514Z,0.00
2022-10-08T02:24:17.516Z,0.00
2022-10-08T02:25:17.495Z,0.00
2022-10-08T02:26:17.495Z,0.00
2022-10-08T02:27:17.494Z,0.00
2022-10-08T02:28:17.542Z,0.00
2022-10-08T02:29:17.461Z,0.00
2022-10-08T02:30:17.463Z,0.00
2022-10-08T02:31:17.510Z,0.00
2022-10-08T02:32:17.465Z,0.00
2022-10-08T02:33:17.447Z,0.00
2022-10-08T02:34:17.443Z,0.00
2022-10-08T02:35:17.415Z,0.00
2022-10-08T02:36:17.420Z,0.00
2022-10-08T02:37:17.408Z,0.00
2022-10-08T02:38:17.432Z,0.00
2022-10-08T02:39:17.399Z,0.00
2022-10-08T02:40:17.409Z,0.00
2022-10-08T02:41:17.380Z,0.00
2022-10-08T02:42:17.364Z,0.00
2022-10-08T02:43:17.360Z,0.00
2022-10-08T02:44:17.373Z,0.00
2022-10-08T02:45:17.351Z,0.00
2022-10-08T02:46:17.492Z,0.00
2022-10-08T02:47:17.334Z,0.00
2022-10-08T02:48:17.331Z,0.00
2022-10-08T02:49:17.323Z,0.00
2022-10-08T02:50:17.329Z,0.00
2022-10-08T02:51:17.328Z,0.00
2022-10-08T02:52:17.301Z,0.00
2022-10-08T02:53:17.294Z,0.00
2022-10-08T02:54:17.282Z,0.00
2022-10-08T02:55:17.276Z,0.00
2022-10-08T02:56:17.298Z,0.00
2022-10-08T02:57:17.262Z,0.00
2022-10-08T02:58:17.280Z,0.00
2022-10-08T02:59:17.248Z,0.00
2022-10-08T03:00:17.236Z,0.00
2022-10-08T03:01:17.309Z,0.00
2022-10-08T03:02:17.322Z,0.00
2022-10-08T03:03:17.215Z,0.00
2022-10-08T03:04:17.236Z,0.00
2022-10-08T03:05:17.203Z,0.00
2022-10-08T03:06:17.195Z,0.00
2022-10-08T03:07:17.189Z,0.00
2022-10-08T03:08:17.186Z,0.00
2022-10-08T03:09:17.194Z,0.00
2022-10-08T03:10:17.192Z,0.00
2022-10-08T03:11:17.158Z,0.00
2022-10-08T03:12:17.158Z,0.00
2022-10-08T03:13:17.143Z,0.00
2022-10-08T03:14:17.131Z,0.00
2022-10-08T03:15:17.147Z,0.00
2022-10-08T03:16:17.162Z,0.00
2022-10-08T03:17:17.116Z,0.00
2022-10-08T03:18:17.137Z,0.00
2022-10-08T03:19:17.110Z,0.00
2022-10-08T03:20:17.093Z,0.00
2022-10-08T03:21:17.101Z,0.00
2022-10-08T03:22:17.083Z,0.00
2022-10-08T03:23:17.090Z,0.00
2022-10-08T03:24:17.070Z,0.00
2022-10-08T03:25:17.069Z,0.00
2022-10-08T03:26:17.058Z,0.00
2022-10-08T03:27:17.040Z,0.00
2022-10-08T03:28:17.067Z,0.00
2022-10-08T03:29:17.040Z,0.00
2022-10-08T03:30:17.018Z,0.00
2022-10-08T03:31:17.055Z,0.00
2022-10-08T03:32:17.016Z,0.00
2022-10-08T03:33:16.992Z,0.00
2022-10-08T03:34:16.996Z,0.00
2022-10-08T03:35:17.001Z,0.00
2022-10-08T03:36:16.977Z,0.00
2022-10-08T03:37:16.970Z,0.00
2022-10-08T03:38:16.979Z,0.00
2022-10-08T03:39:16.962Z,0.00
2022-10-08T03:40:16.948Z,0.00
2022-10-08T03:41:16.934Z,0.00
2022-10-08T03:42:16.946Z,0.00
2022-10-08T03:43:16.947Z,0.00
2022-10-08T03:44:16.944Z,0.00
2022-10-08T03:45:16.912Z,0.00
2022-10-08T03:46:16.954Z,0.00
2022-10-08T03:47:16.893Z,0.00
2022-10-08T03:48:16.888Z,0.00
2022-10-08T03:49:16.884Z,0.00
2022-10-08T03:50:16.902Z,0.00
2022-10-08T03:51:16.870Z,0.00
2022-10-08T03:52:16.856Z,0.00
2022-10-08T03:53:16.855Z,0.00
2022-10-08T03:54:16.854Z,0.00
2022-10-08T03:55:16.835Z,0.00
2022-10-08T03:56:16.867Z,0.00
2022-10-08T03:57:16.850Z,0.00
2022-10-08T03:58:16.819Z,0.00
2022-10-08T03:59:16.814Z,0.00
2022-10-08T04:00:16.813Z,0.00
2022-10-08T04:01:16.892Z,0.00
2022-10-08T04:02:16.830Z,0.00
2022-10-08T04:03:16.802Z,0.00
2022-10-08T04:04:18.124Z,0.00
2022-10-08T04:05:16.771Z,0.00
2022-10-08T04:06:16.765Z,0.00
2022-10-08T04:07:16.754Z,0.00
2022-10-08T04:08:16.773Z,0.00
2022-10-08T04:09:16.738Z,0.00
2022-10-08T04:10:16.741Z,0.00
2022-10-08T04:11:16.731Z,0.00
2022-10-08T04:12:16.730Z,0.00
2022-10-08T04:13:16.721Z,0.00
2022-10-08T04:14:16.724Z,0.00
2022-10-08T04:15:16.696Z,0.00
2022-10-08T04:16:16.724Z,0.00
2022-10-08T04:17:16.752Z,0.00
2022-10-08T04:18:16.683Z,0.00
2022-10-08T04:19:16.670Z,0.00
2022-10-08T04:20:16.664Z,0.00
2022-10-08T04:21:16.652Z,0.00
2022-10-08T04:22:16.680Z,0.00
2022-10-08T04:23:16.643Z,0.00
2022-10-08T04:24:16.643Z,0.00
2022-10-08T04:25:16.626Z,0.00
2022-10-08T04:26:16.657Z,0.00
2022-10-08T04:27:16.635Z,0.00
2022-10-08T04:28:16.697Z,0.00
2022-10-08T04:29:16.603Z,0.00
2022-10-08T04:30:16.592Z,0.00
2022-10-08T04:31:16.702Z,0.00
2022-10-08T04:32:16.589Z,0.00
2022-10-08T04:33:16.566Z,0.00
2022-10-08T04:34:16.595Z,0.00
2022-10-08T04:35:16.559Z,0.00
2022-10-08T04:36:16.549Z,0.00
2022-10-08T04:37:16.567Z,0.00
2022-10-08T04:38:16.550Z,0.00
2022-10-08T04:39:16.532Z,0.00
2022-10-08T04:40:16.533Z,0.00
2022-10-08T04:41:16.529Z,0.00
2022-10-08T04:42:16.523Z,0.00
2022-10-08T04:43:16.532Z,0.00
2022-10-08T04:44:16.507Z,0.00
2022-10-08T04:45:16.509Z,0.00
2022-10-08T04:46:16.611Z,0.00
2022-10-08T04:47:16.481Z,0.00
2022-10-08T04:48:16.476Z,0.00
2022-10-08T04:49:16.486Z,0.00
2022-10-08T04:50:16.466Z,0.00
2022-10-08T04:51:16.461Z,0.00
2022-10-08T04:52:16.449Z,0.00
2022-10-08T04:53:16.435Z,0.00
2022-10-08T04:54:16.455Z,0.00
2022-10-08T04:55:16.429Z,0.00
2022-10-08T04:56:16.424Z,0.00
2022-10-08T04:57:16.413Z,1.00
2022-10-08T04:58:16.414Z,1.00
2022-10-08T04:59:16.426Z,1.00
2022-10-08T05:00:18.977Z,1.00
2022-10-08T05:01:16.464Z,1.00
2022-10-08T05:02:16.444Z,1.00
2022-10-08T05:03:16.389Z,1.00
2022-10-08T05:04:16.375Z,1.00
2022-10-08T05:05:16.371Z,1.00
2022-10-08T05:06:16.375Z,1.00
2022-10-08T05:07:16.369Z,1.00
2022-10-08T05:08:16.356Z,1.00
2022-10-08T05:09:16.348Z,2.00
2022-10-08T05:10:16.327Z,2.00
2022-10-08T05:11:16.318Z,1.00
2022-10-08T05:12:16.311Z,2.00
2022-10-08T05:13:16.309Z,2.00
2022-10-08T05:14:16.326Z,3.00
2022-10-08T05:15:16.292Z,2.00
2022-10-08T05:16:16.352Z,3.00
2022-10-08T05:17:16.292Z,4.00
2022-10-08T05:18:16.279Z,6.00
2022-10-08T05:19:16.326Z,7.00
2022-10-08T05:20:16.268Z,8.00
2022-10-08T05:21:16.251Z,11.00
2022-10-08T05:22:16.261Z,15.00
2022-10-08T05:23:16.246Z,18.00
2022-10-08T05:24:16.235Z,20.00
2022-10-08T05:25:16.250Z,23.00
2022-10-08T05:26:16.231Z,27.00
2022-10-08T05:27:16.216Z,31.00
2022-10-08T05:28:16.247Z,35.00
2022-10-08T05:29:16.195Z,40.00
2022-10-08T05:30:21.070Z,46.00
2022-10-08T05:31:17.252Z,48.00
2022-10-08T05:32:16.204Z,50.00
2022-10-08T05:33:16.171Z,54.00
2022-10-08T05:34:16.159Z,55.00
2022-10-08T05:35:16.173Z,56.00
2022-10-08T05:36:16.150Z,58.00
2022-10-08T05:37:16.153Z,59.00
2022-10-08T05:38:16.142Z,59.00
2022-10-08T05:39:16.125Z,57.00
2022-10-08T05:40:16.144Z,52.00
2022-10-08T05:41:16.109Z,57.00
2022-10-08T05:42:16.125Z,67.00
2022-10-08T05:43:16.099Z,73.00
2022-10-08T05:44:16.109Z,76.00
2022-10-08T05:45:16.089Z,77.00
2022-10-08T05:46:16.147Z,87.00
2022-10-08T05:47:16.083Z,97.00
2022-10-08T05:48:16.077Z,99.00
2022-10-08T05:49:16.054Z,104.00
2022-10-08T05:50:16.061Z,116.00
2022-10-08T05:51:16.054Z,125.00
2022-10-08T05:52:16.065Z,125.00
2022-10-08T05:53:16.029Z,134.00
2022-10-08T05:54:16.025Z,141.00
2022-10-08T05:55:16.013Z,150.00
2022-10-08T05:56:16.012Z,164.00
2022-10-08T05:57:16.004Z,165.00
2022-10-08T05:58:16.020Z,173.00
2022-10-08T05:59:15.988Z,179.00
2022-10-08T06:00:15.982Z,188.00
2022-10-08T06:01:15.982Z,193.00
2022-10-08T06:02:15.980Z,202.00
2022-10-08T06:03:16.004Z,209.00
2022-10-08T06:04:15.981Z,221.00
2022-10-08T06:05:15.973Z,233.00
2022-10-08T06:06:15.964Z,247.00
2022-10-08T06:07:15.955Z,257.00
2022-10-08T06:08:15.931Z,275.00
2022-10-08T06:09:15.931Z,296.00
2022-10-08T06:10:15.923Z,325.00
2022-10-08T06:11:15.926Z,361.00
2022-10-08T06:12:15.923Z,402.00
2022-10-08T06:13:15.908Z,442.00
2022-10-08T06:14:15.894Z,471.00
2022-10-08T06:15:15.880Z,488.00
2022-10-08T06:16:15.911Z,456.00
2022-10-08T06:17:15.884Z,475.00
2022-10-08T06:18:15.883Z,537.00
2022-10-08T06:19:15.854Z,617.00
2022-10-08T06:20:15.856Z,715.00
2022-10-08T06:21:15.843Z,717.00
2022-10-08T06:22:15.837Z,736.00
2022-10-08T06:23:15.833Z,845.00
2022-10-08T06:24:15.840Z,1001.00
2022-10-08T06:25:15.813Z,1121.00
2022-10-08T06:26:15.809Z,694.00
2022-10-08T06:27:15.795Z,494.00
2022-10-08T06:28:15.844Z,463.00
2022-10-08T06:29:15.830Z,478.00
2022-10-08T06:30:15.791Z,500.00
2022-10-08T06:31:15.800Z,537.00
2022-10-08T06:32:15.759Z,550.00
2022-10-08T06:33:15.750Z,569.00
2022-10-08T06:34:15.746Z,602.00
2022-10-08T06:35:15.756Z,614.00
2022-10-08T06:36:15.739Z,650.00
2022-10-08T06:37:15.721Z,694.00
2022-10-08T06:38:15.724Z,740.00
2022-10-08T06:39:15.709Z,790.00
2022-10-08T06:40:15.705Z,837.00
2022-10-08T06:41:15.804Z,870.00
2022-10-08T06:42:15.695Z,907.00
2022-10-08T06:43:15.694Z,971.00
2022-10-08T06:44:15.676Z,1022.00
2022-10-08T06:45:15.672Z,1112.00
2022-10-08T06:46:15.737Z,1254.00
2022-10-08T06:47:15.668Z,1614.00
2022-10-08T06:48:15.648Z,3257.00
2022-10-08T06:49:15.652Z,2019.00
2022-10-08T06:50:15.626Z,6176.00
2022-10-08T06:51:15.620Z,8509.00
2022-10-08T06:52:15.646Z,4605.00
2022-10-08T06:53:15.609Z,2185.00
2022-10-08T06:54:15.603Z,2141.00
2022-10-08T06:55:15.592Z,2135.00
2022-10-08T06:56:15.588Z,2300.00
2022-10-08T06:57:15.570Z,2227.00
2022-10-08T06:58:15.601Z,2257.00
2022-10-08T06:59:15.560Z,2228.00
2022-10-08T07:00:15.559Z,1948.00
2022-10-08T07:01:15.588Z,1973.00
2022-10-08T07:02:15.685Z,1952.00
2022-10-08T07:03:15.552Z,1899.00
2022-10-08T07:04:15.543Z,1788.00
2022-10-08T07:05:15.517Z,1587.00
2022-10-08T07:06:15.508Z,1369.00
2022-10-08T07:07:15.507Z,1223.00
2022-10-08T07:08:15.496Z,1117.00
2022-10-08T07:09:15.506Z,1079.00
2022-10-08T07:10:18.313Z,1059.00
2022-10-08T07:11:15.503Z,1147.00
2022-10-08T07:12:15.469Z,1209.00
2022-10-08T07:13:15.452Z,1245.00
2022-10-08T07:14:15.449Z,1370.00
2022-10-08T07:15:15.450Z,1629.00
2022-10-08T07:16:20.359Z,1892.00
2022-10-08T07:17:16.442Z,2294.00
2022-10-08T07:18:15.427Z,7223.00
2022-10-08T07:19:15.435Z,1705.00
2022-10-08T07:20:15.407Z,1268.00
2022-10-08T07:21:15.407Z,1479.00
2022-10-08T07:22:15.398Z,993.00
2022-10-08T07:23:15.388Z,941.00
2022-10-08T07:24:15.375Z,930.00
2022-10-08T07:25:15.384Z,933.00
2022-10-08T07:26:15.374Z,907.00
2022-10-08T07:27:15.353Z,881.00
2022-10-08T07:28:15.396Z,867.00
2022-10-08T07:29:15.343Z,833.00
2022-10-08T07:30:15.344Z,786.00
2022-10-08T07:31:15.353Z,728.00
2022-10-08T07:32:15.324Z,750.00
2022-10-08T07:33:15.338Z,767.00
2022-10-08T07:34:15.311Z,809.00
2022-10-08T07:35:15.299Z,859.00
2022-10-08T07:36:15.299Z,900.00
2022-10-08T07:37:15.290Z,948.00
2022-10-08T07:38:15.273Z,961.00
2022-10-08T07:39:15.314Z,897.00
2022-10-08T07:40:15.274Z,898.00
2022-10-08T07:41:15.261Z,1007.00
2022-10-08T07:42:15.262Z,1097.00
2022-10-08T07:43:19.514Z,1586.00
2022-10-08T07:44:15.262Z,2293.00
2022-10-08T07:45:15.215Z,12853.00
2022-10-08T07:46:15.288Z,3834.00
2022-10-08T07:47:15.200Z,3535.00
2022-10-08T07:48:15.203Z,7897.00
2022-10-08T07:49:15.191Z,2925.00
2022-10-08T07:50:15.241Z,2024.00
2022-10-08T07:51:15.182Z,1570.00
2022-10-08T07:52:15.172Z,1306.00
2022-10-08T07:53:15.159Z,1088.00
2022-10-08T07:54:15.154Z,985.00
2022-10-08T07:55:15.156Z,981.00
2022-10-08T07:56:15.156Z,940.00
2022-10-08T07:57:15.136Z,778.00
2022-10-08T07:58:15.123Z,665.00
2022-10-08T07:59:15.132Z,625.00
2022-10-08T08:00:15.114Z,593.00
2022-10-08T08:01:15.129Z,531.00
2022-10-08T08:02:15.175Z,526.00
2022-10-08T08:03:15.087Z,560.00
2022-10-08T08:04:15.105Z,611.00
2022-10-08T08:05:15.090Z,707.00
2022-10-08T08:06:15.066Z,837.00
2022-10-08T08:07:15.073Z,974.00
2022-10-08T08:08:15.049Z,931.00
2022-10-08T08:09:15.062Z,935.00
2022-10-08T08:10:15.026Z,1083.00
2022-10-08T08:11:15.029Z,1051.00
2022-10-08T08:12:15.024Z,849.00
2022-10-08T08:13:15.030Z,691.00
2022-10-08T08:14:15.002Z,743.00
2022-10-08T08:15:14.991Z,932.00
2022-10-08T08:16:15.036Z,985.00
2022-10-08T08:17:14.992Z,909.00
2022-10-08T08:18:14.969Z,839.00
2022-10-08T08:19:14.984Z,894.00
2022-10-08T08:20:14.965Z,1062.00
2022-10-08T08:21:14.956Z,1328.00
2022-10-08T08:22:14.940Z,1756.00
2022-10-08T08:23:14.938Z,2384.00
2022-10-08T08:24:14.931Z,2303.00
2022-10-08T08:25:14.944Z,3536.00
2022-10-08T08:26:14.931Z,1671.00
2022-10-08T08:27:14.902Z,1430.00
2022-10-08T08:28:14.940Z,1460.00
2022-10-08T08:29:14.951Z,1566.00
2022-10-08T08:30:14.894Z,1836.00
2022-10-08T08:31:14.871Z,2540.00
2022-10-08T08:32:14.907Z,2594.00
2022-10-08T08:33:14.868Z,3011.00
2022-10-08T08:34:14.852Z,3887.00
2022-10-08T08:35:14.878Z,2810.00
2022-10-08T08:36:14.836Z,2600.00
2022-10-08T08:37:14.828Z,2000.00
2022-10-08T08:38:14.826Z,1688.00
2022-10-08T08:39:14.821Z,1680.00
2022-10-08T08:40:14.817Z,1582.00
2022-10-08T08:41:18.534Z,1447.00
2022-10-08T08:42:15.827Z,1341.00
2022-10-08T08:43:14.789Z,1482.00
2022-10-08T08:44:14.777Z,2066.00
2022-10-08T08:45:34.245Z,1790.00
2022-10-08T08:46:21.878Z,1425.00
2022-10-08T08:47:14.764Z,1280.00
2022-10-08T08:48:14.781Z,1264.00
2022-10-08T08:49:14.776Z,1176.00
2022-10-08T08:50:14.752Z,1089.00
2022-10-08T08:51:14.725Z,1044.00
2022-10-08T08:52:14.748Z,1046.00
2022-10-08T08:53:14.717Z,1080.00
2022-10-08T08:54:14.721Z,1115.00
2022-10-08T08:55:14.712Z,1135.00
2022-10-08T08:56:14.694Z,1175.00
2022-10-08T08:57:14.684Z,1256.00
2022-10-08T08:58:14.695Z,1281.00
2022-10-08T08:59:14.668Z,1279.00
2022-10-08T09:00:14.684Z,1259.00
2022-10-08T09:01:14.692Z,1212.00
2022-10-08T09:02:14.671Z,1146.00
2022-10-08T09:03:14.638Z,1108.00
2022-10-08T09:04:14.629Z,1046.00
2022-10-08T09:05:14.734Z,1002.00
2022-10-08T09:06:14.625Z,895.00
2022-10-08T09:07:14.609Z,803.00
2022-10-08T09:08:14.634Z,751.00
2022-10-08T09:09:14.600Z,768.00
2022-10-08T09:10:14.593Z,823.00
2022-10-08T09:11:14.584Z,834.00
2022-10-08T09:12:18.614Z,835.00
2022-10-08T09:13:15.596Z,934.00
2022-10-08T09:14:14.569Z,1039.00
2022-10-08T09:15:14.585Z,1167.00
2022-10-08T09:16:14.581Z,1168.00
2022-10-08T09:17:14.560Z,1154.00
2022-10-08T09:18:14.527Z,1113.00
2022-10-08T09:19:14.523Z,1159.00
2022-10-08T09:20:14.546Z,1225.00
2022-10-08T09:21:14.507Z,1256.00
2022-10-08T09:22:14.494Z,1135.00
2022-10-08T09:23:14.480Z,1053.00
2022-10-08T09:24:14.499Z,1025.00
2022-10-08T09:25:14.477Z,993.00
2022-10-08T09:26:14.482Z,984.00
2022-10-08T09:27:14.458Z,988.00
2022-10-08T09:28:14.536Z,1007.00
2022-10-08T09:29:14.433Z,1011.00
2022-10-08T09:30:14.427Z,921.00
2022-10-08T09:31:14.544Z,863.00
2022-10-08T09:32:14.417Z,804.00
2022-10-08T09:33:14.409Z,744.00
2022-10-08T09:34:14.402Z,648.00
2022-10-08T09:35:14.378Z,551.00
2022-10-08T09:36:14.376Z,506.00
2022-10-08T09:37:14.391Z,511.00
2022-10-08T09:38:14.371Z,537.00
2022-10-08T09:39:14.365Z,573.00
2022-10-08T09:40:14.360Z,600.00
2022-10-08T09:41:14.352Z,625.00
2022-10-08T09:42:14.339Z,615.00
2022-10-08T09:43:14.347Z,613.00
2022-10-08T09:44:14.339Z,638.00
2022-10-08T09:45:14.319Z,680.00
2022-10-08T09:46:14.359Z,715.00
2022-10-08T09:47:14.318Z,739.00
2022-10-08T09:48:14.304Z,768.00
2022-10-08T09:49:14.283Z,793.00
2022-10-08T09:50:14.276Z,822.00
2022-10-08T09:51:14.271Z,862.00
2022-10-08T09:52:17.066Z,906.00
2022-10-08T09:53:14.253Z,922.00
2022-10-08T09:54:14.239Z,919.00
2022-10-08T09:55:14.226Z,912.00
2022-10-08T09:56:14.218Z,888.00
2022-10-08T09:57:14.242Z,831.00
2022-10-08T09:58:14.241Z,797.00
2022-10-08T09:59:14.195Z,803.00
2022-10-08T10:00:14.194Z,820.00
2022-10-08T10:01:14.286Z,865.00
2022-10-08T10:02:14.186Z,885.00
2022-10-08T10:03:14.166Z,927.00
2022-10-08T10:04:14.256Z,983.00
2022-10-08T10:05:14.152Z,1021.00
2022-10-08T10:06:16.771Z,1046.00
2022-10-08T10:07:15.141Z,1087.00
2022-10-08T10:08:14.127Z,1088.00
2022-10-08T10:09:14.139Z,1015.00
2022-10-08T10:10:14.106Z,911.00
2022-10-08T10:11:14.094Z,760.00
2022-10-08T10:12:14.098Z,722.00
2022-10-08T10:13:14.092Z,788.00
2022-10-08T10:14:14.074Z,829.00
2022-10-08T10:15:14.102Z,811.00
2022-10-08T10:16:14.070Z,796.00
2022-10-08T10:17:14.053Z,859.00
2022-10-08T10:18:14.040Z,938.00
2022-10-08T10:19:14.033Z,1038.00
2022-10-08T10:20:14.033Z,1013.00
2022-10-08T10:21:14.037Z,988.00
2022-10-08T10:22:14.011Z,1048.00
2022-10-08T10:23:14.014Z,1107.00
2022-10-08T10:24:13.993Z,1182.00
2022-10-08T10:25:13.985Z,1202.00
2022-10-08T10:26:14.011Z,1213.00
2022-10-08T10:27:14.008Z,1173.00
2022-10-08T10:28:14.020Z,1236.00
2022-10-08T10:29:13.949Z,1320.00
2022-10-08T10:30:13.948Z,1402.00
2022-10-08T10:31:13.992Z,1485.00
2022-10-08T10:32:14.828Z,1324.00
2022-10-08T10:33:13.944Z,1233.00
2022-10-08T10:34:13.912Z,1127.00
2022-10-08T10:35:13.932Z,1064.00
2022-10-08T10:36:13.903Z,1028.00
2022-10-08T10:37:13.897Z,1058.00
2022-10-08T10:38:13.938Z,1087.00
2022-10-08T10:39:13.877Z,1028.00
2022-10-08T10:40:13.874Z,980.00
2022-10-08T10:41:13.868Z,982.00
2022-10-08T10:42:13.859Z,1005.00
2022-10-08T10:43:13.843Z,1117.00
2022-10-08T10:44:13.869Z,1140.00
2022-10-08T10:45:13.834Z,1101.00
2022-10-08T10:46:13.903Z,1107.00
2022-10-08T10:47:13.829Z,1225.00
2022-10-08T10:48:13.810Z,1447.00
2022-10-08T10:49:13.823Z,1679.00
2022-10-08T10:50:13.815Z,1775.00
2022-10-08T10:51:13.812Z,1837.00
2022-10-08T10:52:13.807Z,1868.00
2022-10-08T10:53:13.798Z,1860.00
2022-10-08T10:54:13.761Z,1829.00
2022-10-08T10:55:13.753Z,1716.00
2022-10-08T10:56:13.744Z,1598.00
2022-10-08T10:57:13.735Z,1484.00
2022-10-08T10:58:13.741Z,1381.00
2022-10-08T10:59:13.715Z,1346.00
2022-10-08T11:00:13.717Z,1380.00
2022-10-08T11:01:13.767Z,1469.00
2022-10-08T11:02:13.730Z,1571.00
2022-10-08T11:03:13.676Z,1528.00
2022-10-08T11:04:13.677Z,1499.00
2022-10-08T11:05:13.661Z,1464.00
2022-10-08T11:06:13.675Z,1352.00
2022-10-08T11:07:13.675Z,1209.00
2022-10-08T11:08:13.645Z,1087.00
2022-10-08T11:09:13.653Z,1018.00
2022-10-08T11:10:13.630Z,999.00
2022-10-08T11:11:13.617Z,986.00
2022-10-08T11:12:13.613Z,964.00
2022-10-08T11:13:13.604Z,942.00
2022-10-08T11:14:13.607Z,942.00
2022-10-08T11:15:13.625Z,952.00
2022-10-08T11:16:13.647Z,967.00
2022-10-08T11:17:13.581Z,990.00
2022-10-08T11:18:13.579Z,1043.00
2022-10-08T11:19:13.557Z,1070.00
2022-10-08T11:20:13.576Z,1060.00
2022-10-08T11:21:13.534Z,1027.00
2022-10-08T11:22:13.551Z,1041.00
2022-10-08T11:23:13.527Z,1092.00
2022-10-08T11:24:13.528Z,1149.00
2022-10-08T11:25:13.514Z,1211.00
2022-10-08T11:26:28.880Z,1233.00
2022-10-08T11:27:14.492Z,1208.00
2022-10-08T11:28:13.526Z,1167.00
2022-10-08T11:29:13.501Z,1130.00
2022-10-08T11:30:13.469Z,1106.00
2022-10-08T11:31:13.495Z,1083.00
2022-10-08T11:32:13.466Z,1071.00
2022-10-08T11:33:13.450Z,1065.00
2022-10-08T11:34:13.445Z,1056.00
2022-10-08T11:35:13.459Z,1032.00
2022-10-08T11:36:13.427Z,1025.00
2022-10-08T11:37:13.409Z,1047.00
2022-10-08T11:38:13.411Z,1085.00
2022-10-08T11:39:13.426Z,1107.00
2022-10-08T11:40:13.391Z,1124.00
2022-10-08T11:41:13.378Z,1143.00
2022-10-08T11:42:13.371Z,1176.00
2022-10-08T11:43:13.365Z,1227.00
2022-10-08T11:44:13.358Z,1295.00
2022-10-08T11:45:13.437Z,1388.00
2022-10-08T11:46:13.396Z,1495.00
2022-10-08T11:47:13.334Z,1572.00
2022-10-08T11:48:13.327Z,1578.00
2022-10-08T11:49:13.334Z,1608.00
2022-10-08T11:50:13.388Z,1673.00
2022-10-08T11:51:13.331Z,2141.00
2022-10-08T11:52:13.320Z,2080.00
2022-10-08T11:53:13.297Z,3513.00
2022-10-08T11:54:13.285Z,2763.00
2022-10-08T11:55:13.283Z,1993.00
2022-10-08T11:56:13.278Z,1788.00
2022-10-08T11:57:13.280Z,1834.00
2022-10-08T11:58:13.242Z,3652.00
2022-10-08T11:59:13.246Z,3696.00
2022-10-08T12:00:13.301Z,2872.00
2022-10-08T12:01:13.246Z,2999.00
2022-10-08T12:02:13.234Z,4083.00
2022-10-08T12:03:13.366Z,3834.00
2022-10-08T12:04:13.202Z,3020.00
2022-10-08T12:05:13.185Z,4046.00
2022-10-08T12:06:13.174Z,3921.00
2022-10-08T12:07:13.213Z,3853.00
2022-10-08T12:08:13.159Z,3833.00
2022-10-08T12:09:13.145Z,3819.00
2022-10-08T12:10:13.199Z,3685.00
2022-10-08T12:11:13.136Z,3587.00
2022-10-08T12:12:13.125Z,3561.00
2022-10-08T12:13:17.629Z,3498.00
2022-10-08T12:14:13.120Z,3426.00
2022-10-08T12:15:13.103Z,1729.00
2022-10-08T12:16:13.127Z,3248.00
2022-10-08T12:17:13.087Z,3151.00
2022-10-08T12:18:13.071Z,3186.00
2022-10-08T12:19:13.084Z,3179.00
2022-10-08T12:20:13.124Z,3189.00
2022-10-08T12:21:13.053Z,3131.00
2022-10-08T12:22:13.041Z,3095.00
2022-10-08T12:23:13.044Z,3091.00
2022-10-08T12:24:13.022Z,3040.00
2022-10-08T12:25:13.032Z,2996.00
2022-10-08T12:26:13.034Z,2966.00
2022-10-08T12:27:13.018Z,2913.00
2022-10-08T12:28:13.069Z,2910.00
2022-10-08T12:29:12.979Z,2926.00
2022-10-08T12:30:13.057Z,2908.00
2022-10-08T12:31:13.026Z,2893.00
2022-10-08T12:32:12.961Z,2896.00
2022-10-08T12:33:12.975Z,2889.00
2022-10-08T12:34:12.950Z,2894.00
2022-10-08T12:35:12.932Z,2912.00
2022-10-08T12:36:12.920Z,2880.00
2022-10-08T12:37:16.442Z,2171.00
2022-10-08T12:38:12.923Z,2901.00
2022-10-08T12:39:12.917Z,2856.00
2022-10-08T12:40:12.896Z,2756.00
2022-10-08T12:41:12.877Z,2719.00